createdAt,value
2019-01-03T00:02:14.829Z,98665.59
2019-01-03T00:05:09.973Z,98671.94
2019-01-03T00:08:02.125Z,98674.64
2019-01-03T00:10:42.534Z,98679.58
2019-01-03T00:13:30.757Z,98688.17
2019-01-03T00:16:19.981Z,98685.60
2019-01-03T00:19:18.453Z,98684.45
2019-01-03T00:22:16.825Z,98678.62
2019-01-03T00:25:06.123Z,98683.97
2019-01-03T00:27:55.139Z,98684.52
2019-01-03T00:30:43.270Z,98696.64
2019-01-03T00:33:38.345Z,98699.69
2019-01-03T00:36:26.176Z,98700.06
2019-01-03T00:39:21.435Z,98704.97
2019-01-03T00:42:09.637Z,98711.84
2019-01-03T00:44:58.865Z,98709.21
2019-01-03T00:47:48.122Z,98715.96
2019-01-03T00:50:40.027Z,98717.39
2019-01-03T00:53:35.219Z,98720.06
2019-01-03T00:56:26.680Z,98715.23
2019-01-03T00:59:31.335Z,98714.97
2019-01-03T01:02:19.411Z,98718.77
2019-01-03T01:05:24.052Z,98728.94
2019-01-03T01:08:15.664Z,98725.41
2019-01-03T01:11:07.719Z,98738.80
2019-01-03T01:13:57.587Z,98743.41
2019-01-03T01:16:49.909Z,98743.52
2019-01-03T01:19:38.055Z,98752.15
2019-01-03T01:22:29.389Z,98754.20
2019-01-03T01:25:21.607Z,98759.16
2019-01-03T01:28:10.733Z,98756.27
2019-01-03T01:30:58.722Z,98745.25
2019-01-03T01:34:02.551Z,98755.55
2019-01-03T01:36:51.774Z,98748.22
2019-01-03T01:39:49.822Z,98757.94
2019-01-03T01:42:51.114Z,98753.28
2019-01-03T01:45:46.583Z,98758.94
2019-01-03T01:48:38.541Z,98753.63
2019-01-03T01:51:42.926Z,98760.45
2019-01-03T01:54:32.774Z,98768.94
2019-01-03T01:57:30.872Z,98762.23
2019-01-03T02:00:18.593Z,98759.42
2019-01-03T02:03:01.333Z,98760.17
2019-01-03T02:05:47.031Z,98757.94
2019-01-03T02:08:25.026Z,98754.14
2019-01-03T02:11:16.919Z,98760.64
2019-01-03T02:14:04.646Z,98763.17
2019-01-03T02:16:52.758Z,98756.33
2019-01-03T02:19:42.056Z,98763.52
2019-01-03T02:22:32.671Z,98770.85
2019-01-03T02:25:21.072Z,98756.89
2019-01-03T02:28:16.382Z,98761.98
2019-01-03T02:31:04.432Z,98753.13
2019-01-03T02:33:53.743Z,98763.25
2019-01-03T02:36:45.785Z,98761.88
2019-01-03T02:39:38.293Z,98777.48
2019-01-03T02:42:26.086Z,98765.11
2019-01-03T02:45:14.398Z,98776.66
2019-01-03T02:48:02.953Z,98770.52
2019-01-03T02:50:54.641Z,98772.91
2019-01-03T02:53:59.686Z,98771.38
2019-01-03T02:56:52.517Z,98771.89
2019-01-03T02:59:44.425Z,98771.78
2019-01-03T03:02:34.338Z,98770.27
2019-01-03T03:05:22.952Z,98770.52
2019-01-03T03:08:15.767Z,98772.80
2019-01-03T03:11:04.827Z,98779.61
2019-01-03T03:13:53.882Z,98767.57
2019-01-03T03:16:38.990Z,98772.02
2019-01-03T03:19:26.920Z,98771.02
2019-01-03T03:22:14.382Z,98777.41
2019-01-03T03:25:02.198Z,98773.98
2019-01-03T03:27:50.134Z,98775.52
2019-01-03T03:30:45.417Z,98769.58
2019-01-03T03:33:43.825Z,98775.69
2019-01-03T03:36:51.336Z,98776.42
2019-01-03T03:39:43.273Z,98771.84
2019-01-03T03:42:32.146Z,98769.08
2019-01-03T03:45:12.723Z,98774.79
2019-01-03T03:48:14.232Z,98771.48
2019-01-03T03:51:01.388Z,98778.48
2019-01-03T03:53:53.440Z,98768.38
2019-01-03T03:56:48.363Z,98768.73
2019-01-03T03:59:55.832Z,98773.55
2019-01-03T04:02:54.422Z,98772.45
2019-01-03T04:05:42.479Z,98766.40
2019-01-03T04:08:38.717Z,98772.20
2019-01-03T04:11:26.505Z,98771.37
2019-01-03T04:14:11.434Z,98769.26
2019-01-03T04:16:59.760Z,98763.20
2019-01-03T04:19:40.261Z,98752.61
2019-01-03T04:22:28.623Z,98750.61
2019-01-03T04:25:26.953Z,98758.30
2019-01-03T04:28:15.235Z,98762.24
2019-01-03T04:30:57.154Z,98757.82
2019-01-03T04:33:46.204Z,98751.76
2019-01-03T04:36:34.926Z,98755.03
2019-01-03T04:39:28.576Z,98753.91
2019-01-03T04:42:23.750Z,98758.34
2019-01-03T04:45:06.748Z,98764.39
2019-01-03T04:47:54.614Z,98758.70
2019-01-03T04:50:52.953Z,98769.08
2019-01-03T04:53:40.695Z,98773.09
2019-01-03T04:56:28.682Z,98780.69
2019-01-03T04:59:17.107Z,98779.42
2019-01-03T05:02:14.062Z,98786.14
2019-01-03T05:05:02.086Z,98788.28
2019-01-03T05:07:50.173Z,98781.07
2019-01-03T05:10:32.605Z,98788.80
2019-01-03T05:13:20.798Z,98781.97
2019-01-03T05:16:13.314Z,98787.66
2019-01-03T05:19:16.643Z,98780.83
2019-01-03T05:22:11.832Z,98779.05
2019-01-03T05:24:59.472Z,98782.47
2019-01-03T05:27:48.101Z,98782.23
2019-01-03T05:30:43.401Z,98785.52
2019-01-03T05:33:47.574Z,98792.32
2019-01-03T05:36:27.984Z,98797.37
2019-01-03T05:39:26.246Z,98794.84
2019-01-03T05:42:15.432Z,98801.42
2019-01-03T05:45:03.306Z,98806.20
2019-01-03T05:48:02.028Z,98810.51
2019-01-03T05:51:00.525Z,98813.02
2019-01-03T05:53:48.394Z,98814.80
2019-01-03T05:56:33.100Z,98821.19
2019-01-03T05:59:22.240Z,98816.97
2019-01-03T06:02:29.514Z,98828.04
2019-01-03T06:05:17.346Z,98827.98
2019-01-03T06:08:18.317Z,98830.45
2019-01-03T06:11:05.155Z,98832.14
2019-01-03T06:14:08.268Z,98829.86
2019-01-03T06:16:56.072Z,98833.43
2019-01-03T06:19:44.059Z,98828.23
2019-01-03T06:22:30.611Z,98834.47
2019-01-03T06:25:28.456Z,98831.86
2019-01-03T06:28:32.748Z,98838.70
2019-01-03T06:31:28.543Z,98847.55
2019-01-03T06:34:33.184Z,98846.95
2019-01-03T06:37:21.177Z,98848.59
2019-01-03T06:40:13.510Z,98855.66
2019-01-03T06:43:01.245Z,98853.39
2019-01-03T06:45:50.393Z,98853.39
2019-01-03T06:48:35.677Z,98855.64
2019-01-03T06:51:23.548Z,98858.42
2019-01-03T06:54:08.410Z,98863.72
2019-01-03T06:56:56.487Z,98864.68
2019-01-03T06:59:44.588Z,98873.27
2019-01-03T07:02:32.498Z,98865.69
2019-01-03T07:05:31.403Z,98861.28
2019-01-03T07:08:29.659Z,98856.37
2019-01-03T07:11:26.934Z,98860.16
2019-01-03T07:14:23.797Z,98855.50
2019-01-03T07:17:16.032Z,98868.89
2019-01-03T07:20:07.852Z,98865.22
2019-01-03T07:22:55.614Z,98862.48
2019-01-03T07:25:47.783Z,98872.05
2019-01-03T07:28:45.742Z,98868.00
2019-01-03T07:31:37.562Z,98873.34
2019-01-03T07:34:29.945Z,98880.55
2019-01-03T07:37:18.353Z,98880.14
2019-01-03T07:40:26.078Z,98897.72
2019-01-03T07:43:16.796Z,98891.05
2019-01-03T07:46:24.148Z,98898.37
2019-01-03T07:49:11.834Z,98894.58
2019-01-03T07:52:01.006Z,98898.98
2019-01-03T07:54:53.470Z,98900.37
2019-01-03T07:57:42.305Z,98908.47
2019-01-03T08:00:35.050Z,98911.78
2019-01-03T08:03:24.316Z,98911.92
2019-01-03T08:06:12.533Z,98915.97
2019-01-03T08:09:04.838Z,98913.86
2019-01-03T08:11:52.659Z,98920.20
2019-01-03T08:14:41.831Z,98913.64
2019-01-03T08:17:35.014Z,98912.52
2019-01-03T08:20:30.282Z,98905.58
2019-01-03T08:23:18.420Z,98907.83
2019-01-03T08:26:13.727Z,98915.42
2019-01-03T08:29:02.024Z,98917.45
2019-01-03T08:31:55.938Z,98920.50
2019-01-03T08:34:50.936Z,98915.20
2019-01-03T08:37:40.319Z,98909.88
2019-01-03T08:40:29.642Z,98895.20
2019-01-03T08:43:27.183Z,98898.75
2019-01-03T08:46:18.890Z,98890.17
2019-01-03T08:49:03.653Z,98891.30
2019-01-03T08:51:51.714Z,98894.56
2019-01-03T08:54:40.980Z,98889.63
2019-01-03T08:57:36.321Z,98888.52
2019-01-03T09:00:26.555Z,98898.23
2019-01-03T09:03:14.881Z,98889.38
2019-01-03T09:06:13.352Z,98895.33
2019-01-03T09:09:05.838Z,98900.77
2019-01-03T09:11:54.070Z,98899.72
2019-01-03T09:14:46.598Z,98907.31
2019-01-03T09:17:38.979Z,98903.47
2019-01-03T09:20:27.251Z,98894.62
2019-01-03T09:23:15.377Z,98899.41
2019-01-03T09:26:05.863Z,98901.77
2019-01-03T09:28:58.701Z,98910.90
2019-01-03T09:31:56.889Z,98912.55
2019-01-03T09:34:46.219Z,98908.09
2019-01-03T09:37:34.107Z,98908.22
2019-01-03T09:40:41.894Z,98906.35
2019-01-03T09:43:30.048Z,98905.68
2019-01-03T09:46:00.841Z,98890.55
2019-01-03T09:48:31.348Z,98884.88
2019-01-03T09:51:01.937Z,98884.19
2019-01-03T09:53:32.710Z,98880.83
2019-01-03T09:56:07.500Z,98897.25
2019-01-03T09:58:38.284Z,98890.98
2019-01-03T10:01:08.307Z,98890.08
2019-01-03T10:03:39.171Z,98900.19
2019-01-03T10:06:11.396Z,98897.51
2019-01-03T10:08:42.096Z,98890.14
2019-01-03T10:11:12.627Z,98879.09
2019-01-03T10:13:43.229Z,98881.39
2019-01-03T10:16:13.861Z,98879.84
2019-01-03T10:18:44.706Z,98886.28
2019-01-03T10:21:15.572Z,98879.69
2019-01-03T10:23:46.082Z,98867.25
2019-01-03T10:26:16.769Z,98865.22
2019-01-03T10:28:47.458Z,98864.53
2019-01-03T10:31:18.344Z,98866.31
2019-01-03T10:33:49.283Z,98860.39
2019-01-03T10:36:24.284Z,98859.27
2019-01-03T10:38:53.431Z,98850.76
2019-01-03T10:41:23.806Z,98849.59
2019-01-03T10:43:54.302Z,98854.56
2019-01-03T10:46:24.617Z,98852.50
2019-01-03T10:48:55.759Z,98850.03
2019-01-03T10:51:26.195Z,98844.16
2019-01-03T10:53:56.701Z,98839.23
2019-01-03T10:56:27.185Z,98830.73
2019-01-03T10:58:57.612Z,98829.42
2019-01-03T11:01:28.348Z,98824.55
2019-01-03T11:03:59.695Z,98824.81
2019-01-03T11:06:30.156Z,98821.53
2019-01-03T11:09:00.880Z,98814.38
2019-01-03T11:11:31.700Z,98813.77
2019-01-03T11:14:02.616Z,98808.61
2019-01-03T11:16:33.201Z,98809.28
2019-01-03T11:19:03.748Z,98807.03
2019-01-03T11:21:34.382Z,98800.83
2019-01-03T11:24:04.877Z,98795.95
2019-01-03T11:26:35.141Z,98788.29
2019-01-03T11:29:05.326Z,98783.16
2019-01-03T11:31:35.652Z,98781.05
2019-01-03T11:34:05.851Z,98773.34
2019-01-03T11:36:35.944Z,98764.45
2019-01-03T11:39:08.215Z,98763.97
2019-01-03T11:41:38.893Z,98754.30
2019-01-03T11:44:09.563Z,98760.37
2019-01-03T11:46:39.888Z,98756.74
2019-01-03T11:49:10.605Z,98756.74
2019-01-03T11:51:41.589Z,98748.05
2019-01-03T11:54:12.138Z,98742.22
2019-01-03T11:56:42.638Z,98742.17
2019-01-03T11:59:13.862Z,98734.66
2019-01-03T12:01:44.780Z,98739.80
2019-01-03T12:04:15.067Z,98733.77
2019-01-03T12:06:45.227Z,98727.20
2019-01-03T12:09:15.442Z,98722.14
2019-01-03T12:11:45.622Z,98727.03
2019-01-03T12:14:16.272Z,98726.71
2019-01-03T12:16:46.397Z,98720.55
2019-01-03T12:19:16.637Z,98721.21
2019-01-03T12:21:46.781Z,98721.08
2019-01-03T12:24:16.975Z,98716.33
2019-01-03T12:26:47.399Z,98712.14
2019-01-03T12:29:17.578Z,98703.50
2019-01-03T12:31:48.005Z,98700.20
2019-01-03T12:34:18.514Z,98694.33
2019-01-03T12:36:49.143Z,98692.34
2019-01-03T12:39:19.385Z,98697.32
2019-01-03T12:41:49.685Z,98689.48
2019-01-03T12:44:20.021Z,98683.77
2019-01-03T12:46:50.159Z,98684.88
2019-01-03T12:49:20.816Z,98688.95
2019-01-03T12:51:50.991Z,98693.46
2019-01-03T12:54:21.144Z,98691.00
2019-01-03T12:56:52.040Z,98696.52
2019-01-03T12:59:22.305Z,98704.33
2019-01-03T13:01:52.443Z,98696.20
2019-01-03T13:04:22.755Z,98699.98
2019-01-03T13:06:53.042Z,98688.53
2019-01-03T13:09:23.362Z,98701.31
2019-01-03T13:11:53.699Z,98695.57
2019-01-03T13:14:23.898Z,98700.39
2019-01-03T13:16:54.121Z,98686.98
2019-01-03T13:19:24.341Z,98687.35
2019-01-03T13:21:54.563Z,98692.66
2019-01-03T13:24:25.196Z,98696.16
2019-01-03T13:26:55.404Z,98688.88
2019-01-03T13:29:25.681Z,98695.48
2019-01-03T13:31:56.244Z,98680.52
2019-01-03T13:34:26.653Z,98686.83
2019-01-03T13:36:57.131Z,98695.07
2019-01-03T13:39:27.255Z,98687.09
2019-01-03T13:41:57.849Z,98682.50
2019-01-03T13:44:28.363Z,98695.66
2019-01-03T13:46:59.003Z,98690.87
2019-01-03T13:49:29.263Z,98697.59
2019-01-03T13:51:59.868Z,98690.92
2019-01-03T13:54:30.203Z,98693.08
2019-01-03T13:57:00.623Z,98695.92
2019-01-03T13:59:30.877Z,98686.66
2019-01-03T14:02:01.339Z,98682.75
2019-01-03T14:04:32.279Z,98688.70
2019-01-03T14:07:02.745Z,98690.14
2019-01-03T14:09:33.056Z,98688.73
2019-01-03T14:12:03.706Z,98689.75
2019-01-03T14:14:34.078Z,98681.87
2019-01-03T14:17:04.646Z,98685.39
2019-01-03T14:19:35.043Z,98678.61
2019-01-03T14:22:05.787Z,98685.33
2019-01-03T14:24:36.497Z,98679.86
2019-01-03T14:27:06.798Z,98683.84
2019-01-03T14:29:37.129Z,98678.34
2019-01-03T14:32:07.721Z,98681.13
2019-01-03T14:34:37.966Z,98682.86
2019-01-03T14:37:09.083Z,98689.81
2019-01-03T14:39:39.560Z,98683.05
2019-01-03T14:42:10.117Z,98687.73
2019-01-03T14:44:40.638Z,98683.70
2019-01-03T14:47:10.855Z,98681.08
2019-01-03T14:49:41.478Z,98675.55
2019-01-03T14:52:11.824Z,98675.65
2019-01-03T14:54:42.317Z,98673.94
2019-01-03T14:57:12.799Z,98672.74
2019-01-03T14:59:43.292Z,98677.93
2019-01-03T15:02:13.961Z,98688.61
2019-01-03T15:04:44.425Z,98692.27
2019-01-03T15:07:15.052Z,98697.39
2019-01-03T15:09:45.623Z,98701.24
2019-01-03T15:12:16.669Z,98691.42
2019-01-03T15:14:47.136Z,98705.47
2019-01-03T15:17:17.816Z,98701.00
2019-01-03T15:19:48.184Z,98693.91
2019-01-03T15:22:19.012Z,98694.19
2019-01-03T15:24:49.697Z,98686.52
2019-01-03T15:27:19.880Z,98687.38
2019-01-03T15:29:50.280Z,98678.58
2019-01-03T15:32:20.526Z,98684.59
2019-01-03T15:34:50.702Z,98682.47
2019-01-03T15:37:21.141Z,98684.02
2019-01-03T15:39:52.116Z,98680.25
2019-01-03T15:42:22.693Z,98680.91
2019-01-03T15:44:53.031Z,98699.20
2019-01-03T15:47:23.468Z,98696.56
2019-01-03T15:49:54.259Z,98700.65
2019-01-03T15:52:24.552Z,98707.77
2019-01-03T15:54:55.245Z,98714.11
2019-01-03T15:57:25.750Z,98713.73
2019-01-03T15:59:56.404Z,98714.59
2019-01-03T16:02:27.070Z,98711.27
2019-01-03T16:04:57.666Z,98719.80
2019-01-03T16:07:28.207Z,98721.20
2019-01-03T16:09:59.415Z,98717.91
2019-01-03T16:12:29.967Z,98717.70
2019-01-03T16:15:00.292Z,98719.48
2019-01-03T16:17:30.606Z,98717.43
2019-01-03T16:20:01.473Z,98710.82
2019-01-03T16:22:31.771Z,98714.34
2019-01-03T16:25:02.104Z,98709.04
2019-01-03T16:27:32.571Z,98714.34
2019-01-03T16:30:03.143Z,98720.45
2019-01-03T16:32:33.621Z,98719.25
2019-01-03T16:35:04.079Z,98725.34
2019-01-03T16:37:34.431Z,98715.69
2019-01-03T16:40:05.264Z,98712.95
2019-01-03T16:42:46.032Z,98713.73
2019-01-03T16:45:16.395Z,98715.52
2019-01-03T16:47:46.367Z,98721.47
2019-01-03T16:50:18.521Z,98718.66
2019-01-03T16:52:48.763Z,98715.99
2019-01-03T16:55:19.232Z,98714.14
2019-01-03T16:58:50.984Z,98709.80
2019-01-03T17:01:21.345Z,98711.71
2019-01-03T17:03:51.813Z,98701.84
2019-01-03T17:06:22.662Z,98706.64
2019-01-03T17:08:53.256Z,98700.85
2019-01-03T17:11:23.531Z,98691.55
2019-01-03T17:13:53.831Z,98702.05
2019-01-03T17:16:24.062Z,98693.70
2019-01-03T17:18:54.525Z,98689.38
2019-01-03T17:21:24.733Z,98697.74
2019-01-03T17:23:55.697Z,98701.55
2019-01-03T17:26:26.388Z,98702.84
2019-01-03T17:28:56.903Z,98708.91
2019-01-03T17:31:27.331Z,98709.41
2019-01-03T17:33:57.741Z,98715.23
2019-01-03T17:36:28.244Z,98716.47
2019-01-03T17:38:58.992Z,98715.23
2019-01-03T17:41:29.789Z,98710.27
2019-01-03T17:44:00.318Z,98697.60
2019-01-03T17:46:30.652Z,98703.29
2019-01-03T17:49:01.051Z,98698.05
2019-01-03T17:51:31.326Z,98697.60
2019-01-03T17:54:01.762Z,98690.24
2019-01-03T17:56:32.224Z,98699.97
2019-01-03T17:59:02.584Z,98697.87
2019-01-03T18:01:32.881Z,98711.44
2019-01-03T18:04:03.783Z,98713.32
2019-01-03T18:06:34.266Z,98709.28
2019-01-03T18:09:05.550Z,98717.60
2019-01-03T18:11:55.985Z,98706.98
2019-01-03T18:14:26.314Z,98712.33
2019-01-03T18:16:56.620Z,98722.05
2019-01-03T18:19:26.932Z,98712.53
2019-01-03T18:21:57.259Z,98726.38
2019-01-03T18:24:27.400Z,98737.13
2019-01-03T18:26:57.711Z,98741.68
2019-01-03T18:29:28.757Z,98748.80
2019-01-03T18:31:58.917Z,98729.52
2019-01-03T18:34:29.082Z,98726.16
2019-01-03T18:36:59.625Z,98724.52
2019-01-03T18:39:29.923Z,98719.07
2019-01-03T18:42:00.139Z,98714.66
2019-01-03T18:44:30.433Z,98710.98
2019-01-03T18:47:00.746Z,98715.41
2019-01-03T18:49:30.960Z,98720.48
2019-01-03T18:52:01.372Z,98735.41
2019-01-03T18:54:31.885Z,98737.47
2019-01-03T18:57:02.545Z,98738.09
2019-01-03T18:59:32.769Z,98730.75
2019-01-03T19:02:03.021Z,98732.77
2019-01-03T19:04:33.268Z,98741.65
2019-01-03T19:07:03.566Z,98755.22
2019-01-03T19:09:33.746Z,98752.88
2019-01-03T19:12:04.479Z,98762.65
2019-01-03T19:14:34.828Z,98758.53
2019-01-03T19:17:05.230Z,98750.66
2019-01-03T19:19:35.498Z,98751.44
2019-01-03T19:22:05.920Z,98743.32
2019-01-03T19:24:36.108Z,98739.52
2019-01-03T19:27:06.405Z,98732.15
2019-01-03T19:29:37.183Z,98727.45
2019-01-03T19:32:07.395Z,98724.55
2019-01-03T19:34:37.612Z,98721.02
2019-01-03T19:37:08.216Z,98727.56
2019-01-03T19:39:38.697Z,98705.91
2019-01-03T19:42:08.983Z,98721.73
2019-01-03T19:44:39.298Z,98718.30
2019-01-03T19:47:09.788Z,98724.27
2019-01-03T19:49:40.231Z,98729.34
2019-01-03T19:52:10.473Z,98725.16
2019-01-03T19:54:40.767Z,98717.27
2019-01-03T19:57:11.242Z,98708.81
2019-01-03T19:59:41.469Z,98726.29
2019-01-03T20:02:11.613Z,98724.74
2019-01-03T20:04:41.839Z,98719.75
2019-01-03T20:07:12.154Z,98713.78
2019-01-03T20:09:42.344Z,98713.27
2019-01-03T20:12:12.725Z,98697.96
2019-01-03T20:14:42.871Z,98703.27
2019-01-03T20:17:13.195Z,98693.50
2019-01-03T20:19:43.526Z,98698.37
2019-01-03T20:22:14.357Z,98700.39
2019-01-03T20:24:44.606Z,98706.59
2019-01-03T20:27:15.604Z,98713.73
2019-01-03T20:29:46.584Z,98719.27
2019-01-03T20:32:17.224Z,98720.54
2019-01-03T20:34:47.485Z,98716.81
2019-01-03T20:37:17.731Z,98712.50
2019-01-03T20:39:48.050Z,98715.64
2019-01-03T20:42:18.473Z,98718.08
2019-01-03T20:44:48.668Z,98726.44
2019-01-03T20:47:19.046Z,98722.13
2019-01-03T20:49:49.301Z,98715.58
2019-01-03T20:52:20.243Z,98719.48
2019-01-03T20:54:50.767Z,98711.98
2019-01-03T20:57:21.146Z,98710.13
2019-01-03T20:59:51.415Z,98711.78
2019-01-03T21:02:21.571Z,98708.66
2019-01-03T21:04:51.859Z,98706.84
2019-01-03T21:07:22.361Z,98698.11
2019-01-03T21:09:52.707Z,98704.21
2019-01-03T21:12:23.237Z,98701.06
2019-01-03T21:14:53.598Z,98706.13
2019-01-03T21:17:23.796Z,98710.86
2019-01-03T21:19:53.993Z,98717.70
2019-01-03T21:22:24.331Z,98720.72
2019-01-03T21:24:54.903Z,98722.77
2019-01-03T21:27:25.203Z,98738.42
2019-01-03T21:29:55.425Z,98743.16
2019-01-03T21:32:25.870Z,98741.86
2019-01-03T21:34:56.156Z,98744.39
2019-01-03T21:37:26.260Z,98741.23
2019-01-03T21:39:56.539Z,98739.97
2019-01-03T21:42:26.652Z,98739.45
2019-01-03T21:44:56.832Z,98756.72
2019-01-03T21:47:37.224Z,98749.25
2019-01-03T21:50:11.021Z,98751.37
2019-01-03T21:52:41.266Z,98755.45
2019-01-03T21:55:11.663Z,98749.86
2019-01-03T21:57:41.829Z,98744.69
2019-01-03T22:00:14.083Z,98749.39
2019-01-03T22:02:45.227Z,98754.94
2019-01-03T22:05:15.536Z,98750.00
2019-01-03T22:07:46.016Z,98760.79
2019-01-03T22:10:17.626Z,98752.74
2019-01-03T22:12:48.681Z,98747.70
2019-01-03T22:15:18.941Z,98741.51
2019-01-03T22:17:49.490Z,98739.28
2019-01-03T22:20:19.786Z,98737.84
2019-01-03T22:22:50.336Z,98741.30
2019-01-03T22:25:20.669Z,98753.46
2019-01-03T22:27:51.816Z,98756.64
2019-01-03T22:30:23.179Z,98758.39
2019-01-03T22:32:53.830Z,98751.41
2019-01-03T22:35:24.429Z,98765.38
2019-01-03T22:37:54.747Z,98762.33
2019-01-03T22:40:25.276Z,98761.30
2019-01-03T22:42:55.452Z,98770.41
2019-01-03T22:45:25.752Z,98776.75
2019-01-03T22:47:55.966Z,98767.91
2019-01-03T22:50:26.235Z,98765.31
2019-01-03T22:52:56.494Z,98778.23
2019-01-03T22:55:26.714Z,98771.00
2019-01-03T22:57:57.155Z,98769.84
2019-01-03T23:00:52.511Z,98759.80
2019-01-03T23:03:23.317Z,98766.58
2019-01-03T23:05:55.363Z,98764.59
2019-01-03T23:08:25.643Z,98764.77
2019-01-03T23:10:55.957Z,98765.59
2019-01-03T23:13:26.673Z,98760.38
2019-01-03T23:15:57.259Z,98766.72
2019-01-03T23:18:31.414Z,98767.58
2019-01-03T23:20:59.439Z,98759.22
2019-01-03T23:23:29.773Z,98758.47
2019-01-03T23:26:01.635Z,98766.06
2019-01-03T23:28:32.211Z,98772.30
2019-01-03T23:31:02.364Z,98776.85
2019-01-03T23:33:32.671Z,98772.41
2019-01-03T23:36:02.956Z,98771.92
2019-01-03T23:38:33.117Z,98778.02
2019-01-03T23:41:03.735Z,98778.73
2019-01-03T23:43:34.489Z,98769.49
2019-01-03T23:46:05.181Z,98773.73
2019-01-03T23:48:37.766Z,98768.50
2019-01-03T23:51:08.028Z,98762.78
2019-01-03T23:53:38.690Z,98771.68
2019-01-03T23:56:08.899Z,98765.45
2019-01-03T23:58:39.190Z,98776.99
